Time;durP1;ratioP1;P1;durP2;ratioP2;P2;SDS_P1;SDS_P2;PMS_P1;PMS_P2;Temp;Humidity;BMP_temperature;BMP_pressure;BME280_temperature;BME280_humidity;BME280_pressure;Samples;Min_cycle;Max_cycle;Signal;HPM_P1;HPM_P2
2022/03/15 00:00:08;;;;;;;;;;;;;;;13.01;23.23;100824.50;4497507;31;35006;-79
2022/03/15 00:02:40;;;;;;;;;;;;;;;12.92;23.37;100826.84;4497906;31;34126;-81
2022/03/15 00:05:07;;;;;;;;;;;;;;;13.07;23.25;100822.09;4484690;31;32775;-82
2022/03/15 00:07:35;;;;;;;;;;;;;;;13.13;23.24;100814.44;4479082;31;35205;-79
2022/03/15 00:10:03;;;;;;;;;;;;;;;13.10;23.37;100809.13;4491798;31;34246;-79
2022/03/15 00:12:31;;;;;;;;;;;;;;;12.62;23.70;100809.47;4489743;31;34135;-79
2022/03/15 00:14:58;;;;;;;;;;;;;;;12.75;23.38;100810.72;4493589;31;33541;-79
2022/03/15 00:17:26;;;;;;;;;;;;;;;12.79;23.47;100815.16;4497832;31;34270;-79
2022/03/15 00:19:54;;;;;;;;;;;;;;;12.94;23.36;100817.34;4497540;31;34062;-81
2022/03/15 00:22:21;;;;;;;;;;;;;;;13.11;23.17;100810.06;4496723;31;33227;-79
2022/03/15 00:24:49;;;;;;;;;;;;;;;13.16;23.22;100803.25;4491888;31;33871;-80
2022/03/15 00:27:16;;;;;;;;;;;;;;;13.13;23.14;100803.16;4492679;31;33901;-79
2022/03/15 00:29:45;;;;;;;;;;;;;;;13.25;23.10;100785.28;4491871;31;35292;-81
2022/03/15 00:32:17;;;;;;;;;;;;;;;13.27;22.92;100786.22;4490432;31;34576;-80
2022/03/15 00:34:48;;;;;;;;;;;;;;;13.08;23.17;100790.00;4496325;31;35067;-81
2022/03/15 00:37:15;;;;;;;;;;;;;;;12.95;23.23;100787.88;4497875;31;35341;-80
2022/03/15 00:39:42;;;;;;;;;;;;;;;13.06;22.98;100798.59;4498425;31;35325;-81
2022/03/15 00:42:10;;;;;;;;;;;;;;;13.11;23.04;100794.44;4497542;31;33525;-80
2022/03/15 00:44:48;;;;;;;;;;;;;;;13.19;23.15;100786.84;4482814;31;34174;-79
2022/03/15 00:47:16;;;;;;;;;;;;;;;13.24;23.25;100786.13;4472411;31;34268;-79
2022/03/15 00:49:45;;;;;;;;;;;;;;;13.05;23.55;100795.12;4496751;31;34888;-80
2022/03/15 00:52:12;;;;;;;;;;;;;;;13.12;23.35;100797.06;4494906;31;33298;-79
2022/03/15 00:54:40;;;;;;;;;;;;;;;13.26;23.17;100791.38;4493807;31;33824;-81
2022/03/15 00:57:10;;;;;;;;;;;;;;;13.18;23.31;100800.66;4456225;31;33350;-79
2022/03/15 00:59:37;;;;;;;;;;;;;;;13.09;23.30;100796.97;4491367;31;33729;-79
2022/03/15 01:02:05;;;;;;;;;;;;;;;13.06;23.43;100791.66;4493925;31;33689;-80
2022/03/15 01:04:32;;;;;;;;;;;;;;;12.93;23.59;100793.88;4493622;31;33928;-79
2022/03/15 01:07:00;;;;;;;;;;;;;;;12.74;23.58;100784.66;4492428;31;33700;-80
2022/03/15 01:09:28;;;;;;;;;;;;;;;13.07;23.68;100767.41;4491350;31;33821;-79
2022/03/15 01:11:57;;;;;;;;;;;;;;;12.91;23.99;100760.00;4489432;31;33593;-79
2022/03/15 01:14:27;;;;;;;;;;;;;;;12.89;23.78;100767.75;4494371;31;33909;-80
2022/03/15 01:16:55;;;;;;;;;;;;;;;12.87;23.88;100753.81;4495893;31;34360;-80
2022/03/15 01:19:24;;;;;;;;;;;;;;;12.86;23.76;100757.25;4493970;31;34527;-80
2022/03/15 01:21:52;;;;;;;;;;;;;;;12.87;23.68;100760.75;4491632;31;33296;-80
2022/03/15 01:24:20;;;;;;;;;;;;;;;12.87;23.70;100750.31;4483268;31;34262;-80
2022/03/15 01:26:51;;;;;;;;;;;;;;;12.66;23.61;100742.78;4494558;31;35254;-81
2022/03/15 01:29:22;;;;;;;;;;;;;;;12.80;23.78;100745.78;4491401;31;34019;-80
2022/03/15 01:31:50;;;;;;;;;;;;;;;12.92;23.92;100746.16;4497502;31;33363;-81
2022/03/15 01:34:18;;;;;;;;;;;;;;;12.84;23.92;100745.03;4494554;31;34980;-79
2022/03/15 01:36:45;;;;;;;;;;;;;;;12.80;23.84;100748.38;4497660;31;34423;-80
2022/03/15 01:39:13;;;;;;;;;;;;;;;12.99;23.82;100736.78;4498616;31;35055;-80
2022/03/15 01:41:42;;;;;;;;;;;;;;;13.04;23.52;100741.28;4490329;31;34024;-80
2022/03/15 01:44:19;;;;;;;;;;;;;;;13.04;23.30;100737.81;4499720;31;33932;-80
2022/03/15 01:46:47;;;;;;;;;;;;;;;12.89;23.30;100746.06;4499715;31;35406;-80
2022/03/15 01:49:18;;;;;;;;;;;;;;;12.86;23.77;100752.06;4500015;31;34185;-81
2022/03/15 01:51:49;;;;;;;;;;;;;;;12.97;23.58;100749.75;4498552;31;33144;-81
2022/03/15 01:54:16;;;;;;;;;;;;;;;12.83;23.56;100762.37;4491586;31;35185;-81
2022/03/15 01:56:44;;;;;;;;;;;;;;;12.82;23.39;100762.34;4499634;31;35191;-81
2022/03/15 01:59:12;;;;;;;;;;;;;;;13.00;23.24;100759.41;4499920;31;34104;-79
2022/03/15 02:01:42;;;;;;;;;;;;;;;12.96;23.17;100766.22;4500530;31;33223;-79
2022/03/15 02:04:11;;;;;;;;;;;;;;;12.76;23.39;100763.03;4500163;31;34987;-81
2022/03/15 02:06:39;;;;;;;;;;;;;;;12.82;23.46;100764.94;4498796;31;33951;-81
2022/03/15 02:09:08;;;;;;;;;;;;;;;12.59;23.50;100765.13;4499501;31;34597;-80
2022/03/15 02:11:35;;;;;;;;;;;;;;;12.37;24.08;100757.50;4498352;31;33681;-80
2022/03/15 02:14:03;;;;;;;;;;;;;;;12.49;23.67;100750.06;4498975;31;33919;-79
2022/03/15 02:16:31;;;;;;;;;;;;;;;12.67;23.85;100747.16;4499871;31;35275;-81
2022/03/15 02:18:59;;;;;;;;;;;;;;;12.63;23.59;100748.78;4481340;32;35147;-80
2022/03/15 02:21:26;;;;;;;;;;;;;;;12.69;23.50;100752.37;4498805;31;34474;-79
2022/03/15 02:23:54;;;;;;;;;;;;;;;12.71;23.49;100746.41;4499865;31;34183;-80
2022/03/15 02:26:21;;;;;;;;;;;;;;;12.59;23.50;100746.94;4499399;31;35145;-81
2022/03/15 02:28:49;;;;;;;;;;;;;;;12.56;23.33;100746.84;4499570;31;33815;-81
2022/03/15 02:31:16;;;;;;;;;;;;;;;12.62;23.48;100752.22;4497779;31;33218;-81
2022/03/15 02:33:43;;;;;;;;;;;;;;;12.44;23.48;100741.25;4496629;31;33941;-80
2022/03/15 02:36:11;;;;;;;;;;;;;;;12.39;23.50;100748.06;4495371;31;34219;-81
2022/03/15 02:38:38;;;;;;;;;;;;;;;12.23;23.68;100753.59;4494021;31;34296;-81
2022/03/15 02:41:06;;;;;;;;;;;;;;;12.35;23.77;100751.38;4495558;31;34328;-80
2022/03/15 02:43:33;;;;;;;;;;;;;;;12.14;23.77;100762.00;4497403;31;34156;-81
2022/03/15 02:46:01;;;;;;;;;;;;;;;12.35;23.85;100759.16;4499663;31;34487;-81
2022/03/15 02:48:28;;;;;;;;;;;;;;;12.37;23.43;100755.78;4494843;31;32908;-80
2022/03/15 02:51:01;;;;;;;;;;;;;;;12.47;23.56;100759.56;4498448;31;33426;-81
2022/03/15 02:53:28;;;;;;;;;;;;;;;12.51;23.60;100758.81;4495521;31;34282;-82
2022/03/15 02:55:58;;;;;;;;;;;;;;;12.39;23.58;100764.53;4499025;31;35325;-79
2022/03/15 02:58:25;;;;;;;;;;;;;;;12.40;23.60;100765.41;4498940;31;34711;-81
2022/03/15 03:00:53;;;;;;;;;;;;;;;12.12;23.92;100763.66;4498233;31;33414;-82
2022/03/15 03:03:22;;;;;;;;;;;;;;;12.26;23.75;100762.37;4498823;31;34162;-81
2022/03/15 03:05:50;;;;;;;;;;;;;;;12.39;23.57;100759.34;4499171;31;34208;-81
2022/03/15 03:08:17;;;;;;;;;;;;;;;12.38;23.83;100761.88;4499403;31;34535;-82
2022/03/15 03:10:44;;;;;;;;;;;;;;;12.34;23.38;100755.69;4498208;31;33866;-81
2022/03/15 03:13:12;;;;;;;;;;;;;;;12.26;23.56;100762.37;4499710;31;34205;-81
2022/03/15 03:15:40;;;;;;;;;;;;;;;12.21;23.92;100757.88;4498584;31;34138;-81
2022/03/15 03:18:09;;;;;;;;;;;;;;;12.19;23.66;100755.22;4499332;31;34777;-82
2022/03/15 03:20:36;;;;;;;;;;;;;;;11.95;23.67;100755.31;4498888;31;33536;-82
2022/03/15 03:23:03;;;;;;;;;;;;;;;12.03;23.47;100760.75;4499457;31;34222;-82
2022/03/15 03:25:31;;;;;;;;;;;;;;;12.02;23.60;100762.50;4498276;31;34456;-81
2022/03/15 03:28:00;;;;;;;;;;;;;;;11.85;23.68;100756.72;4499110;31;33939;-82
2022/03/15 03:30:29;;;;;;;;;;;;;;;11.93;23.83;100746.56;4498593;31;33298;-82
2022/03/15 03:32:56;;;;;;;;;;;;;;;12.00;23.91;100752.88;4498989;31;33456;-80
2022/03/15 03:35:24;;;;;;;;;;;;;;;11.82;24.39;100750.50;4498388;31;35009;-82
2022/03/15 03:37:52;;;;;;;;;;;;;;;11.96;24.09;100749.28;4498666;31;33847;-82
2022/03/15 03:40:19;;;;;;;;;;;;;;;11.93;24.14;100751.78;4498646;31;33144;-81
2022/03/15 03:42:46;;;;;;;;;;;;;;;11.89;24.48;100762.91;4497617;31;34154;-81
2022/03/15 03:45:13;;;;;;;;;;;;;;;11.96;24.00;100764.88;4498738;31;34388;-81
2022/03/15 03:47:40;;;;;;;;;;;;;;;11.96;23.97;100764.88;4499307;31;35037;-81
2022/03/15 03:50:08;;;;;;;;;;;;;;;11.96;24.24;100757.06;4494920;31;33431;-81
2022/03/15 03:52:36;;;;;;;;;;;;;;;12.01;24.26;100757.22;4498723;31;35266;-81
2022/03/15 03:55:04;;;;;;;;;;;;;;;11.99;24.02;100754.59;4499028;31;33916;-80
2022/03/15 03:57:31;;;;;;;;;;;;;;;12.00;24.18;100764.12;4499403;31;35366;-82
2022/03/15 03:59:59;;;;;;;;;;;;;;;11.94;23.99;100763.97;4498899;31;33687;-81
2022/03/15 04:02:27;;;;;;;;;;;;;;;11.94;24.07;100771.75;4497898;31;35000;-81
2022/03/15 04:04:55;;;;;;;;;;;;;;;11.93;24.01;100773.47;4498833;31;33852;-81
2022/03/15 04:07:22;;;;;;;;;;;;;;;11.73;24.12;100771.00;4498990;31;34604;-82
2022/03/15 04:09:50;;;;;;;;;;;;;;;11.66;24.29;100762.97;4498671;31;34452;-81
2022/03/15 04:12:20;;;;;;;;;;;;;;;11.84;24.33;100761.88;4493725;31;33885;-80
2022/03/15 04:14:47;;;;;;;;;;;;;;;11.71;24.31;100754.50;4498955;31;34402;-80
2022/03/15 04:17:15;;;;;;;;;;;;;;;11.60;24.42;100762.81;4491057;31;34450;-82
2022/03/15 04:19:42;;;;;;;;;;;;;;;11.85;24.00;100756.72;4497963;31;34527;-82
2022/03/15 04:22:09;;;;;;;;;;;;;;;11.54;23.89;100765.16;4484405;31;34829;-83
2022/03/15 04:24:38;;;;;;;;;;;;;;;11.37;24.24;100759.41;4498674;31;34494;-82
2022/03/15 04:27:05;;;;;;;;;;;;;;;11.34;24.19;100759.28;4497593;31;35306;-81
2022/03/15 04:29:32;;;;;;;;;;;;;;;11.20;24.21;100771.78;4498242;31;33520;-81
2022/03/15 04:32:00;;;;;;;;;;;;;;;11.17;23.94;100771.69;4498167;31;34250;-81
2022/03/15 04:34:30;;;;;;;;;;;;;;;11.31;24.13;100771.28;4493696;31;35059;-81
2022/03/15 04:36:58;;;;;;;;;;;;;;;11.23;24.35;100775.31;4498260;31;34544;-81
2022/03/15 04:39:26;;;;;;;;;;;;;;;11.39;24.43;100778.50;4499130;31;33224;-81
2022/03/15 04:41:54;;;;;;;;;;;;;;;11.35;24.33;100786.13;4498775;31;34392;-81
2022/03/15 04:44:21;;;;;;;;;;;;;;;11.34;24.37;100781.78;4498945;31;35195;-81
2022/03/15 04:46:49;;;;;;;;;;;;;;;11.41;24.61;100783.78;4498647;31;34464;-80
2022/03/15 04:49:16;;;;;;;;;;;;;;;11.17;24.67;100784.69;4498508;31;34279;-81
2022/03/15 04:51:44;;;;;;;;;;;;;;;11.02;24.57;100785.81;4497982;31;34496;-81
2022/03/15 04:54:11;;;;;;;;;;;;;;;11.15;24.81;100782.84;4498897;31;34314;-83
2022/03/15 04:56:38;;;;;;;;;;;;;;;11.28;24.74;100782.44;4498433;31;34122;-81
2022/03/15 04:59:05;;;;;;;;;;;;;;;11.28;24.70;100790.22;4498788;31;33606;-81
2022/03/15 05:01:32;;;;;;;;;;;;;;;11.27;25.03;100790.19;4498628;31;33710;-81
2022/03/15 05:04:00;;;;;;;;;;;;;;;11.36;25.31;100787.91;4498453;31;35412;-81
2022/03/15 05:06:27;;;;;;;;;;;;;;;11.25;25.12;100791.81;4496659;31;34629;-82
2022/03/15 05:08:55;;;;;;;;;;;;;;;11.13;25.14;100794.88;4473615;31;780091;-81
2022/03/15 05:11:22;;;;;;;;;;;;;;;11.25;25.21;100799.63;4497435;31;33906;-80
2022/03/15 05:13:53;;;;;;;;;;;;;;;11.34;24.94;100795.66;4495948;31;34422;-80
2022/03/15 05:16:22;;;;;;;;;;;;;;;11.28;24.65;100794.53;4498098;31;35155;-79
2022/03/15 05:18:51;;;;;;;;;;;;;;;11.18;24.76;100796.81;4496376;31;33391;-81
2022/03/15 05:21:19;;;;;;;;;;;;;;;11.25;25.12;100795.34;4498685;31;34041;-81
2022/03/15 05:23:47;;;;;;;;;;;;;;;11.35;24.99;100791.34;4497220;31;34262;-81
2022/03/15 05:26:15;;;;;;;;;;;;;;;11.34;24.92;100802.56;4497830;31;34681;-82
2022/03/15 05:28:43;;;;;;;;;;;;;;;11.37;24.91;100787.97;4498468;31;33638;-82
2022/03/15 05:31:12;;;;;;;;;;;;;;;11.55;24.75;100781.62;4485895;31;34335;-81
2022/03/15 05:33:43;;;;;;;;;;;;;;;11.69;24.19;100783.00;4497488;31;33860;-81
2022/03/15 05:36:10;;;;;;;;;;;;;;;11.67;24.18;100782.97;4498159;31;34140;-81
2022/03/15 05:38:37;;;;;;;;;;;;;;;11.55;24.84;100785.13;4497851;31;33640;-81
2022/03/15 05:41:07;;;;;;;;;;;;;;;11.64;24.63;100790.66;4497701;31;34100;-82
2022/03/15 05:43:53;;;;;;;;;;;;;;;11.82;24.36;100785.19;4490402;31;35127;-82
2022/03/15 05:46:21;;;;;;;;;;;;;;;11.94;23.88;100789.94;4483819;31;35319;-81
2022/03/15 05:48:49;;;;;;;;;;;;;;;11.68;24.52;100789.03;4498139;31;34335;-82
2022/03/15 05:51:16;;;;;;;;;;;;;;;11.73;24.57;100789.19;4497628;31;34980;-81
2022/03/15 05:53:43;;;;;;;;;;;;;;;11.88;24.74;100781.94;4498289;31;34200;-81
2022/03/15 05:56:11;;;;;;;;;;;;;;;12.07;24.76;100779.09;4497893;31;34371;-80
2022/03/15 05:58:42;;;;;;;;;;;;;;;11.91;24.31;100784.66;4497912;31;33485;-80
2022/03/15 06:01:10;;;;;;;;;;;;;;;12.05;24.40;100780.78;4497191;31;34147;-80
2022/03/15 06:03:37;;;;;;;;;;;;;;;12.43;23.95;100782.84;4497957;31;34988;-80
2022/03/15 06:06:05;;;;;;;;;;;;;;;12.36;24.12;100785.25;4497622;31;34100;-82
2022/03/15 06:08:32;;;;;;;;;;;;;;;12.70;23.79;100780.19;4496338;31;33433;-81
2022/03/15 06:11:02;;;;;;;;;;;;;;;12.66;23.82;100785.31;4497213;31;34799;-81
2022/03/15 06:13:29;;;;;;;;;;;;;;;11.87;24.37;100785.38;4497560;31;34916;-81
2022/03/15 06:15:57;;;;;;;;;;;;;;;12.57;23.88;100784.12;4497253;31;34955;-81
2022/03/15 06:18:24;;;;;;;;;;;;;;;12.18;24.40;100788.12;4497531;31;33442;-82
2022/03/15 06:20:51;;;;;;;;;;;;;;;11.58;24.51;100790.41;4496921;31;35027;-82
2022/03/15 06:23:23;;;;;;;;;;;;;;;11.68;24.21;100787.31;4497211;31;33964;-82
2022/03/15 06:25:51;;;;;;;;;;;;;;;12.62;23.48;100796.47;4498680;31;34255;-82
2022/03/15 06:28:18;;;;;;;;;;;;;;;12.70;23.27;100795.81;4499780;31;34373;-81
2022/03/15 06:30:45;;;;;;;;;;;;;;;12.88;22.97;100796.37;4499936;31;33944;-83
2022/03/15 06:33:16;;;;;;;;;;;;;;;12.78;23.07;100799.53;4499510;31;35009;-82
2022/03/15 06:35:46;;;;;;;;;;;;;;;12.38;23.33;100806.09;4499721;31;35364;-83
2022/03/15 06:38:14;;;;;;;;;;;;;;;12.75;23.13;100804.62;4499544;31;33739;-82
2022/03/15 06:40:42;;;;;;;;;;;;;;;12.70;23.44;100801.91;4499191;31;35154;-82
2022/03/15 06:43:11;;;;;;;;;;;;;;;12.37;23.44;100799.13;4499183;31;34559;-81
2022/03/15 06:45:38;;;;;;;;;;;;;;;12.08;24.03;100793.88;4499868;31;34419;-81
2022/03/15 06:48:06;;;;;;;;;;;;;;;12.37;23.51;100797.41;4499601;31;34535;-82
2022/03/15 06:50:33;;;;;;;;;;;;;;;12.44;23.62;100795.88;4499047;31;34985;-82
2022/03/15 06:53:00;;;;;;;;;;;;;;;12.25;24.45;100794.44;4499047;31;34447;-81
2022/03/15 06:55:29;;;;;;;;;;;;;;;11.02;25.53;100794.47;4499820;31;34502;-82
2022/03/15 06:57:56;;;;;;;;;;;;;;;10.94;25.52;100782.91;4499539;31;33254;-82
2022/03/15 07:00:25;;;;;;;;;;;;;;;11.66;24.81;100775.97;4499083;31;35011;-81
2022/03/15 07:02:52;;;;;;;;;;;;;;;11.77;24.98;100775.47;4499181;31;35210;-81
2022/03/15 07:05:20;;;;;;;;;;;;;;;10.64;26.67;100775.75;4498990;31;35328;-81
2022/03/15 07:07:47;;;;;;;;;;;;;;;10.93;26.81;100775.97;4499685;31;33668;-81
2022/03/15 07:10:17;;;;;;;;;;;;;;;11.11;26.52;100774.06;4499606;31;34498;-81
2022/03/15 07:12:45;;;;;;;;;;;;;;;10.47;27.48;100779.41;4497968;31;35293;-82
2022/03/15 07:15:14;;;;;;;;;;;;;;;9.45;29.08;100774.38;4499362;31;34664;-81
2022/03/15 07:17:57;;;;;;;;;;;;;;;10.08;28.21;100779.59;4499333;31;33623;-81
2022/03/15 07:20:25;;;;;;;;;;;;;;;10.13;27.64;100778.06;4499603;31;35004;-81
2022/03/15 07:22:52;;;;;;;;;;;;;;;10.09;28.29;100778.75;4499250;31;34515;-82
2022/03/15 07:25:20;;;;;;;;;;;;;;;11.02;27.07;100784.09;4499036;31;34302;-81
2022/03/15 07:27:48;;;;;;;;;;;;;;;11.26;26.71;100776.31;4498996;31;33559;-80
2022/03/15 07:30:15;;;;;;;;;;;;;;;11.07;26.81;100779.09;4499266;31;35140;-82
2022/03/15 07:32:42;;;;;;;;;;;;;;;12.02;25.70;100778.09;4498956;31;34425;-82
2022/03/15 07:35:10;;;;;;;;;;;;;;;12.42;25.30;100781.94;4499281;31;34222;-81
2022/03/15 07:37:37;;;;;;;;;;;;;;;12.27;25.11;100782.34;4498024;31;33064;-81
2022/03/15 07:40:05;;;;;;;;;;;;;;;12.80;24.66;100774.41;4492388;31;34644;-82
2022/03/15 07:42:33;;;;;;;;;;;;;;;13.21;24.20;100772.13;4499306;31;34289;-81
2022/03/15 07:45:00;;;;;;;;;;;;;;;12.11;24.94;100778.38;4499141;31;34156;-80
2022/03/15 07:47:30;;;;;;;;;;;;;;;12.97;24.14;100786.22;4497672;31;33604;-81
2022/03/15 07:49:59;;;;;;;;;;;;;;;13.76;23.55;100781.44;4498391;31;34750;-80
2022/03/15 07:52:27;;;;;;;;;;;;;;;12.51;24.34;100790.03;4498727;31;34933;-81
2022/03/15 07:54:54;;;;;;;;;;;;;;;11.42;25.08;100790.72;4498941;31;34159;-81
2022/03/15 07:57:22;;;;;;;;;;;;;;;12.20;24.60;100784.69;4499215;31;34371;-81
2022/03/15 07:59:49;;;;;;;;;;;;;;;12.91;24.02;100775.59;4499447;31;35067;-82
2022/03/15 08:02:17;;;;;;;;;;;;;;;11.85;24.77;100780.09;4498886;31;34252;-82
2022/03/15 08:04:44;;;;;;;;;;;;;;;12.85;23.03;100780.66;4499245;31;35111;-82
2022/03/15 08:07:12;;;;;;;;;;;;;;;12.61;23.43;100781.69;4496282;31;34434;-80
2022/03/15 08:09:39;;;;;;;;;;;;;;;12.65;23.29;100783.56;4497087;31;33773;-81
2022/03/15 08:12:06;;;;;;;;;;;;;;;12.86;22.82;100782.41;4489908;31;34239;-81
2022/03/15 08:14:33;;;;;;;;;;;;;;;12.77;23.18;100787.34;4484859;31;34736;-80
2022/03/15 08:17:01;;;;;;;;;;;;;;;13.43;22.13;100778.84;4498620;31;34215;-81
2022/03/15 08:19:28;;;;;;;;;;;;;;;14.34;20.85;100772.44;4497445;31;35075;-81
2022/03/15 08:22:01;;;;;;;;;;;;;;;13.69;21.23;100769.09;4493616;31;34278;-81
2022/03/15 08:24:28;;;;;;;;;;;;;;;12.90;22.13;100779.94;4483297;32;34529;-81
2022/03/15 08:26:55;;;;;;;;;;;;;;;14.08;20.75;100767.47;4483302;32;33326;-81
2022/03/15 08:29:23;;;;;;;;;;;;;;;14.72;19.92;100770.69;4490240;31;34328;-80
2022/03/15 08:31:51;;;;;;;;;;;;;;;15.05;19.56;100760.09;4497409;31;32437;-81
2022/03/15 08:34:18;;;;;;;;;;;;;;;14.87;20.32;100766.66;4498368;31;34119;-80
2022/03/15 08:36:45;;;;;;;;;;;;;;;15.52;19.70;100756.59;4498926;31;33641;-81
2022/03/15 08:39:14;;;;;;;;;;;;;;;15.49;20.01;100762.69;4497876;31;34143;-80
2022/03/15 08:41:42;;;;;;;;;;;;;;;14.52;20.42;100756.34;4498078;31;33879;-79
2022/03/15 08:44:09;;;;;;;;;;;;;;;14.56;20.79;100755.56;4498395;31;34080;-81
2022/03/15 08:46:36;;;;;;;;;;;;;;;13.79;21.82;100758.94;4498615;31;33062;-79
2022/03/15 08:49:05;;;;;;;;;;;;;;;13.43;22.06;100756.25;4498579;31;34245;-80
2022/03/15 08:51:32;;;;;;;;;;;;;;;13.98;21.47;100746.34;4498272;31;34287;-79
2022/03/15 08:54:00;;;;;;;;;;;;;;;13.44;22.13;100741.50;4497514;31;34168;-80
2022/03/15 08:56:27;;;;;;;;;;;;;;;14.58;21.06;100739.09;4496584;31;34421;-78
2022/03/15 08:58:54;;;;;;;;;;;;;;;14.32;21.65;100728.06;4494180;31;35114;-80
2022/03/15 09:01:21;;;;;;;;;;;;;;;13.56;22.17;100734.00;4497215;31;35324;-80
2022/03/15 09:04:01;;;;;;;;;;;;;;;13.56;22.08;100739.22;4494191;31;34393;-78
2022/03/15 09:06:29;;;;;;;;;;;;;;;14.69;21.24;100728.00;4488056;31;33450;-79
2022/03/15 09:09:00;;;;;;;;;;;;;;;14.71;20.82;100729.78;4498569;31;35156;-80
2022/03/15 09:11:29;;;;;;;;;;;;;;;13.58;22.03;100724.50;4496869;31;34248;-79
2022/03/15 09:13:56;;;;;;;;;;;;;;;14.29;21.71;100720.16;4497365;31;32881;-79
2022/03/15 09:16:23;;;;;;;;;;;;;;;14.50;21.23;100719.75;4498578;31;33302;-79
2022/03/15 09:18:51;;;;;;;;;;;;;;;13.99;21.92;100712.50;4496616;31;33381;-79
2022/03/15 09:21:18;;;;;;;;;;;;;;;14.81;21.45;100707.34;4493763;31;35315;-79
2022/03/15 09:23:46;;;;;;;;;;;;;;;15.07;20.82;100703.50;4492617;31;35080;-79
2022/03/15 09:26:13;;;;;;;;;;;;;;;15.07;21.08;100702.63;4492095;31;34246;-79
2022/03/15 09:28:41;;;;;;;;;;;;;;;14.55;21.03;100704.22;4498229;31;35012;-78
2022/03/15 09:31:08;;;;;;;;;;;;;;;15.66;20.10;100697.63;4497063;31;35344;-83
2022/03/15 09:33:36;;;;;;;;;;;;;;;14.66;21.17;100691.37;4498051;31;34489;-77
2022/03/15 09:36:04;;;;;;;;;;;;;;;13.88;22.10;100696.59;4494482;31;33568;-79
2022/03/15 09:38:32;;;;;;;;;;;;;;;14.94;21.34;100701.53;4490447;31;34218;-80
2022/03/15 09:41:01;;;;;;;;;;;;;;;14.56;21.54;100696.41;4483266;31;34363;-78
2022/03/15 09:43:29;;;;;;;;;;;;;;;14.90;21.38;100683.16;4497549;31;34965;-80
2022/03/15 09:45:56;;;;;;;;;;;;;;;14.95;21.46;100694.56;4483107;31;33787;-79
2022/03/15 09:48:44;;;;;;;;;;;;;;;15.01;21.12;100689.47;4496390;31;33617;-79
2022/03/15 09:51:12;;;;;;;;;;;;;;;15.36;20.63;100687.50;4486562;31;33746;-77
2022/03/15 09:53:40;;;;;;;;;;;;;;;14.49;21.65;100689.31;4496448;31;34411;-80
2022/03/15 09:56:07;;;;;;;;;;;;;;;15.65;20.80;100680.19;4496529;31;34342;-80
2022/03/15 09:58:35;;;;;;;;;;;;;;;15.20;20.98;100675.03;4496686;31;32990;-79
2022/03/15 10:01:02;;;;;;;;;;;;;;;16.02;20.93;100679.03;4494779;31;35373;-79
2022/03/15 10:03:31;;;;;;;;;;;;;;;15.53;21.04;100680.84;4489953;31;33905;-78
2022/03/15 10:06:01;;;;;;;;;;;;;;;15.64;21.32;100677.50;4490534;31;34308;-82
2022/03/15 10:08:28;;;;;;;;;;;;;;;14.25;22.65;100683.53;4499756;31;33965;-81
2022/03/15 10:10:56;;;;;;;;;;;;;;;14.16;22.72;100680.69;4491282;31;34070;-80
2022/03/15 10:13:24;;;;;;;;;;;;;;;15.25;21.63;100669.03;4485927;31;34806;-79
2022/03/15 10:15:52;;;;;;;;;;;;;;;15.87;21.64;100668.31;4496412;31;33109;-79
2022/03/15 10:18:20;;;;;;;;;;;;;;;16.09;21.05;100672.13;4490431;31;34900;-79
2022/03/15 10:20:49;;;;;;;;;;;;;;;16.39;20.51;100669.06;4471322;31;33938;-81
2022/03/15 10:23:17;;;;;;;;;;;;;;;15.80;21.21;100669.09;4498574;31;35234;-79
2022/03/15 10:25:47;;;;;;;;;;;;;;;16.13;20.82;100665.22;4496764;31;33244;-81
2022/03/15 10:28:15;;;;;;;;;;;;;;;16.45;20.80;100650.84;4499128;31;35096;-80
2022/03/15 10:30:43;;;;;;;;;;;;;;;16.58;20.39;100661.44;4495178;31;35243;-79
2022/03/15 10:33:11;;;;;;;;;;;;;;;15.77;21.26;100667.31;4484660;31;34317;-81
2022/03/15 10:35:40;;;;;;;;;;;;;;;16.46;20.92;100651.72;4493081;31;33683;-82
2022/03/15 10:38:07;;;;;;;;;;;;;;;17.16;20.89;100636.81;4497472;31;33855;-82
2022/03/15 10:40:38;;;;;;;;;;;;;;;17.24;19.61;100634.25;4493102;31;35185;-83
2022/03/15 10:43:11;;;;;;;;;;;;;;;16.87;20.09;100623.41;4499508;31;34622;-81
2022/03/15 10:45:43;;;;;;;;;;;;;;;17.40;19.90;100614.31;4494454;31;33714;-81
2022/03/15 10:48:14;;;;;;;;;;;;;;;17.21;19.80;100613.25;4497120;31;34210;-82
2022/03/15 10:50:49;;;;;;;;;;;;;;;15.67;21.31;100625.31;4495641;31;33917;-82
2022/03/15 10:53:16;;;;;;;;;;;;;;;16.50;20.77;100615.09;4499555;31;34489;-79
2022/03/15 10:55:43;;;;;;;;;;;;;;;16.36;20.90;100593.13;4489740;31;33927;-80
2022/03/15 10:58:12;;;;;;;;;;;;;;;16.16;20.93;100594.62;4497474;31;35031;-80
2022/03/15 11:00:40;;;;;;;;;;;;;;;16.93;21.13;100589.44;4490842;31;34180;-82
2022/03/15 11:03:23;;;;;;;;;;;;;;;17.62;19.46;100586.50;4498569;31;34600;-80
2022/03/15 11:05:54;;;;;;;;;;;;;;;18.26;19.06;100576.37;4498611;31;33335;-79
2022/03/15 11:08:22;;;;;;;;;;;;;;;18.43;18.63;100563.31;4497813;31;35224;-79
2022/03/15 11:10:50;;;;;;;;;;;;;;;17.78;19.36;100567.41;4490738;31;35156;-78
2022/03/15 11:13:18;;;;;;;;;;;;;;;18.26;18.80;100554.47;4476426;31;35250;-79
2022/03/15 11:15:48;;;;;;;;;;;;;;;18.09;18.74;100554.44;4499126;31;34273;-78
2022/03/15 11:18:17;;;;;;;;;;;;;;;18.88;18.07;100552.03;4488173;31;34335;-79
2022/03/15 11:20:49;;;;;;;;;;;;;;;17.21;19.47;100538.13;4464367;31;32715;-78
2022/03/15 11:23:19;;;;;;;;;;;;;;;17.38;19.17;100530.38;4498986;31;34291;-78
2022/03/15 11:25:48;;;;;;;;;;;;;;;17.90;18.72;100527.22;4499250;31;33653;-77
2022/03/15 11:28:20;;;;;;;;;;;;;;;17.48;18.67;100523.47;4497506;31;33798;-77
2022/03/15 11:30:49;;;;;;;;;;;;;;;17.74;18.45;100515.75;4497816;31;34003;-80
2022/03/15 11:33:16;;;;;;;;;;;;;;;17.98;18.12;100509.75;4498402;31;35328;-77
2022/03/15 11:35:44;;;;;;;;;;;;;;;18.09;17.92;100507.19;4489522;31;33635;-78
2022/03/15 11:38:13;;;;;;;;;;;;;;;18.16;18.23;100490.59;4492904;31;33766;-80
2022/03/15 11:40:46;;;;;;;;;;;;;;;18.27;18.07;100486.25;4474393;31;33465;-79
2022/03/15 11:43:33;;;;;;;;;;;;;;;17.55;18.43;100482.44;4490262;31;35098;-78
2022/03/15 11:46:03;;;;;;;;;;;;;;;18.32;18.37;100478.38;4469780;31;33213;-78
2022/03/15 11:48:31;;;;;;;;;;;;;;;18.46;17.58;100477.53;4482787;31;34288;-78
2022/03/15 11:51:16;;;;;;;;;;;;;;;18.21;18.06;100476.59;4488978;31;35271;-79
2022/03/15 11:53:50;;;;;;;;;;;;;;;18.69;18.06;100460.91;4482818;31;34755;-79
2022/03/15 11:56:20;;;;;;;;;;;;;;;18.60;18.55;100451.28;4496670;31;33639;-77
2022/03/15 11:58:51;;;;;;;;;;;;;;;19.59;17.07;100438.91;4497433;31;34245;-79
2022/03/15 12:01:20;;;;;;;;;;;;;;;18.47;17.82;100437.25;4497470;31;34204;-80
2022/03/15 12:03:51;;;;;;;;;;;;;;;19.17;17.62;100414.50;4495861;31;34435;-79
2022/03/15 12:06:20;;;;;;;;;;;;;;;19.48;17.14;100409.13;4490489;31;33640;-77
2022/03/15 12:08:52;;;;;;;;;;;;;;;18.85;17.58;100423.28;4489740;31;33608;-80
2022/03/15 12:11:36;;;;;;;;;;;;;;;18.23;17.99;100417.13;4494338;31;34489;-79
2022/03/15 12:14:07;;;;;;;;;;;;;;;18.51;18.09;100416.25;4483272;31;34450;-80
2022/03/15 12:16:36;;;;;;;;;;;;;;;19.14;17.52;100398.72;4482413;31;32289;-79
2022/03/15 12:19:27;;;;;;;;;;;;;;;19.36;17.24;100394.28;4491939;31;33756;-78
2022/03/15 12:21:56;;;;;;;;;;;;;;;19.94;16.68;100394.03;4489992;31;34581;-80
2022/03/15 12:24:29;;;;;;;;;;;;;;;18.89;17.42;100393.50;4497855;31;34341;-79
2022/03/15 12:26:59;;;;;;;;;;;;;;;19.53;17.22;100388.94;4499016;31;35080;-81
2022/03/15 12:29:27;;;;;;;;;;;;;;;19.89;16.76;100386.16;4497455;31;33623;-82
2022/03/15 12:31:56;;;;;;;;;;;;;;;20.22;16.69;100378.91;4498322;31;34484;-78
2022/03/15 12:34:29;;;;;;;;;;;;;;;20.16;16.55;100378.97;4498631;31;35355;-78
2022/03/15 12:36:59;;;;;;;;;;;;;;;21.00;16.20;100374.75;4497796;31;33401;-79
2022/03/15 12:39:28;;;;;;;;;;;;;;;19.91;16.77;100384.38;4493634;31;34155;-79
2022/03/15 12:42:03;;;;;;;;;;;;;;;20.18;16.75;100379.81;4498051;31;34351;-79